Time;durP1;ratioP1;P1;durP2;ratioP2;P2;SDS_P1;SDS_P2;PMS_P1;PMS_P2;Temp;Humidity;BMP_temperature;BMP_pressure;BME280_temperature;BME280_humidity;BME280_pressure;Samples;Min_cycle;Max_cycle;Signal;HPM_P1;HPM_P2
2024/01/12 00:00:46;;;;;;;105.22;35.58;;;-0.10;99.90;;;;;;5024100;28;20071;-82
2024/01/12 00:03:11;;;;;;;106.07;37.10;;;0.00;99.90;;;;;;5021359;28;20264;-81
2024/01/12 00:05:37;;;;;;;95.05;34.05;;;-0.10;99.90;;;;;;5023766;28;20045;-82
2024/01/12 00:08:03;;;;;;;94.07;32.30;;;0.00;99.90;;;;;;5025009;28;20029;-81
2024/01/12 00:10:28;;;;;;;101.57;36.70;;;0.00;99.90;;;;;;5030758;28;20033;-82
2024/01/12 00:12:54;;;;;;;120.78;38.95;;;-0.10;99.90;;;;;;5026405;28;20366;-83
2024/01/12 00:15:19;;;;;;;112.90;38.83;;;0.00;99.90;;;;;;5023698;28;20018;-81
2024/01/12 00:17:45;;;;;;;111.15;38.15;;;0.00;99.90;;;;;;5024594;28;20031;-81
2024/01/12 00:20:11;;;;;;;136.27;39.53;;;0.00;99.90;;;;;;5027856;28;20025;-82
2024/01/12 00:22:37;;;;;;;92.25;32.90;;;0.10;99.90;;;;;;5018328;28;20034;-83
2024/01/12 00:25:02;;;;;;;97.55;33.95;;;0.00;99.90;;;;;;5023433;28;20738;-81
2024/01/12 00:27:28;;;;;;;111.43;37.63;;;0.00;99.90;;;;;;5034374;28;20024;-82
2024/01/12 00:29:54;;;;;;;119.50;40.05;;;0.10;99.90;;;;;;5024237;28;20489;-81
2024/01/12 00:32:19;;;;;;;105.90;36.47;;;0.10;99.90;;;;;;5023439;28;20041;-85
2024/01/12 00:34:45;;;;;;;107.10;36.30;;;0.00;99.90;;;;;;5025074;28;20466;-82
2024/01/12 00:37:11;;;;;;;108.65;36.30;;;0.00;99.90;;;;;;5022116;28;20026;-81
2024/01/12 00:39:37;;;;;;;116.43;37.53;;;0.00;99.90;;;;;;5024076;28;20025;-81
2024/01/12 00:42:04;;;;;;;116.35;37.15;;;0.10;99.90;;;;;;5020320;28;20026;-81
2024/01/12 00:44:29;;;;;;;109.43;37.60;;;0.00;99.90;;;;;;5024353;28;20412;-82
2024/01/12 00:46:55;;;;;;;110.47;36.75;;;0.00;99.90;;;;;;5023972;28;20112;-81
2024/01/12 00:49:21;;;;;;;102.82;34.90;;;0.00;99.90;;;;;;5034495;28;20092;-81
2024/01/12 00:51:47;;;;;;;113.45;37.47;;;0.00;99.90;;;;;;5034485;28;20083;-81
2024/01/12 00:54:15;;;;;;;123.78;36.65;;;0.00;99.90;;;;;;5025534;28;20604;-85
2024/01/12 00:56:41;;;;;;;99.97;32.40;;;0.00;99.90;;;;;;5020048;28;20418;-81
2024/01/12 00:59:06;;;;;;;108.32;35.05;;;0.00;99.90;;;;;;5025855;28;20026;-81
2024/01/12 01:01:34;;;;;;;110.00;35.70;;;-0.10;99.90;;;;;;5025678;28;20029;-80
2024/01/12 01:04:00;;;;;;;123.35;37.40;;;-0.10;99.90;;;;;;5023540;28;20017;-81
2024/01/12 01:06:26;;;;;;;106.30;35.10;;;-0.10;99.90;;;;;;5022122;28;20045;-81
2024/01/12 01:08:52;;;;;;;102.00;35.05;;;-0.10;99.90;;;;;;5030436;28;20060;-82
2024/01/12 01:11:18;;;;;;;106.45;34.30;;;0.00;99.90;;;;;;5029893;28;20114;-85
2024/01/12 01:13:47;;;;;;;96.40;31.25;;;0.00;99.90;;;;;;5023363;28;20068;-85
2024/01/12 01:16:12;;;;;;;108.55;36.55;;;-0.10;99.90;;;;;;5020485;28;20466;-82
2024/01/12 01:18:38;;;;;;;105.22;35.42;;;-0.10;99.90;;;;;;5022157;28;20028;-83
2024/01/12 01:21:04;;;;;;;95.28;31.30;;;-0.10;99.90;;;;;;5018498;28;20018;-84
2024/01/12 01:23:29;;;;;;;106.05;35.42;;;-0.10;99.90;;;;;;5020753;28;20025;-81
2024/01/12 01:25:55;;;;;;;98.82;33.05;;;-0.10;99.90;;;;;;5021385;28;20051;-84
2024/01/12 01:28:23;;;;;;;106.53;35.42;;;-0.10;99.90;;;;;;5022220;28;20079;-86
2024/01/12 01:30:49;;;;;;;105.03;35.40;;;-0.10;99.90;;;;;;5023396;28;20025;-81
2024/01/12 01:33:15;;;;;;;88.32;31.30;;;0.00;99.90;;;;;;5019381;28;20112;-81
2024/01/12 01:35:40;;;;;;;93.65;34.08;;;0.00;99.90;;;;;;5022025;28;20021;-81
2024/01/12 01:38:06;;;;;;;89.00;32.22;;;0.00;99.90;;;;;;5021688;28;20088;-81
2024/01/12 01:40:33;;;;;;;106.63;34.53;;;-0.10;99.90;;;;;;5024569;28;20421;-81
2024/01/12 01:43:11;;;;;;;107.32;33.00;;;-0.10;99.90;;;;;;5020643;28;20032;-82
2024/01/12 01:45:37;;;;;;;100.55;34.00;;;0.00;99.90;;;;;;5024577;28;20164;-82
2024/01/12 01:48:04;;;;;;;95.40;33.65;;;0.00;99.90;;;;;;5020663;28;20048;-82
2024/01/12 01:50:32;;;;;;;109.78;34.78;;;0.00;99.90;;;;;;5016581;28;20373;-81
2024/01/12 01:52:58;;;;;;;95.93;33.13;;;0.00;99.90;;;;;;5024963;28;20075;-81
2024/01/12 01:55:29;;;;;;;78.30;27.52;;;0.00;99.90;;;;;;5023403;28;20025;-85
2024/01/12 01:57:55;;;;;;;80.65;28.88;;;0.00;99.90;;;;;;5023032;28;20060;-83
2024/01/12 02:00:25;;;;;;;84.53;30.88;;;0.00;99.90;;;;;;5015932;28;20018;-85
2024/01/12 02:02:51;;;;;;;87.72;30.27;;;0.00;99.90;;;;;;5019517;28;20021;-81
2024/01/12 02:05:18;;;;;;;88.97;34.10;;;-0.10;99.90;;;;;;5014913;28;20061;-83
2024/01/12 02:07:44;;;;;;;93.07;32.95;;;-0.10;99.90;;;;;;5022582;28;21275;-81
2024/01/12 02:10:09;;;;;;;120.10;37.67;;;0.00;99.90;;;;;;5022486;28;20420;-80
2024/01/12 02:12:38;;;;;;;131.00;39.60;;;-0.10;99.90;;;;;;5020621;28;20417;-81
2024/01/12 02:15:08;;;;;;;125.18;40.90;;;0.00;99.90;;;;;;5022791;28;20028;-82
2024/01/12 02:17:35;;;;;;;109.63;38.05;;;0.00;99.90;;;;;;5025019;28;20033;-82
2024/01/12 02:23:22;;;;;;;124.65;43.08;;;-0.10;99.90;;;;;;5015929;28;20048;-81
2024/01/12 02:25:49;;;;;;;139.38;44.20;;;-0.10;99.90;;;;;;5020675;28;20470;-81
2024/01/12 02:28:15;;;;;;;104.60;35.55;;;-0.10;99.90;;;;;;5022607;28;20033;-81
2024/01/12 02:30:42;;;;;;;126.00;39.58;;;-0.10;99.90;;;;;;5020429;28;20041;-81
2024/01/12 02:33:08;;;;;;;125.30;39.35;;;-0.10;99.90;;;;;;5022212;28;20060;-85
2024/01/12 02:35:34;;;;;;;116.20;38.00;;;0.00;99.90;;;;;;5019729;28;20013;-81
2024/01/12 02:38:00;;;;;;;109.45;34.88;;;0.00;99.90;;;;;;5018158;28;20025;-81
2024/01/12 02:40:26;;;;;;;124.82;39.20;;;0.00;99.90;;;;;;5017611;28;20053;-82
2024/01/12 02:42:52;;;;;;;123.30;36.92;;;0.00;99.90;;;;;;5031546;28;20089;-81
2024/01/12 02:45:21;;;;;;;95.97;34.05;;;-0.10;99.90;;;;;;5026502;28;20103;-84
2024/01/12 02:47:47;;;;;;;94.72;31.70;;;0.00;99.90;;;;;;5025784;28;20017;-81
2024/01/12 02:50:13;;;;;;;104.90;33.30;;;-0.10;99.90;;;;;;5017295;28;20025;-81
2024/01/12 02:52:39;;;;;;;102.03;34.85;;;-0.10;99.90;;;;;;5020490;28;20029;-81
2024/01/12 02:55:05;;;;;;;112.95;37.15;;;-0.10;99.90;;;;;;5019042;28;20485;-81
2024/01/12 02:57:31;;;;;;;120.63;37.90;;;-0.10;99.90;;;;;;5025183;28;20018;-83
2024/01/12 03:00:01;;;;;;;98.40;33.30;;;-0.10;99.90;;;;;;5021523;28;20032;-85
2024/01/12 03:02:27;;;;;;;108.70;36.75;;;-0.10;99.90;;;;;;5021738;28;20034;-81
2024/01/12 03:04:52;;;;;;;127.10;39.70;;;-0.10;99.90;;;;;;5022672;28;20030;-81
2024/01/12 03:07:21;;;;;;;105.90;36.53;;;-0.10;99.90;;;;;;5021205;28;20038;-86
2024/01/12 03:09:46;;;;;;;109.43;38.78;;;0.00;99.90;;;;;;5035362;28;20421;-80
2024/01/12 03:12:12;;;;;;;106.22;37.80;;;0.00;99.90;;;;;;5015470;28;20302;-81
2024/01/12 03:14:38;;;;;;;100.93;34.88;;;0.00;99.90;;;;;;5022087;28;20028;-82
2024/01/12 03:17:03;;;;;;;111.43;36.83;;;0.00;99.90;;;;;;5016110;28;20469;-81
2024/01/12 03:19:32;;;;;;;112.55;35.50;;;0.00;99.90;;;;;;5025208;28;20414;-83
2024/01/12 03:21:57;;;;;;;110.03;36.25;;;0.00;99.90;;;;;;5028202;28;20022;-81
2024/01/12 03:24:23;;;;;;;123.00;39.60;;;0.00;99.90;;;;;;5026024;28;20425;-82
2024/01/12 03:26:48;;;;;;;111.82;37.00;;;-0.10;99.90;;;;;;5033495;28;20469;-82
2024/01/12 03:29:18;;;;;;;111.63;37.78;;;0.00;99.90;;;;;;5022778;28;20022;-86
2024/01/12 03:31:44;;;;;;;106.28;34.78;;;-0.10;99.90;;;;;;5021060;28;20041;-85
2024/01/12 03:34:10;;;;;;;126.15;38.25;;;-0.10;99.90;;;;;;5018787;28;20029;-81
2024/01/12 03:36:38;;;;;;;121.90;37.28;;;0.00;99.90;;;;;;5024554;28;20499;-82
2024/01/12 03:39:04;;;;;;;107.57;36.53;;;0.00;99.90;;;;;;5030188;28;20124;-82
2024/01/12 03:41:30;;;;;;;115.88;36.97;;;0.00;99.90;;;;;;5024139;28;20128;-82
2024/01/12 03:43:56;;;;;;;113.80;35.78;;;0.00;99.90;;;;;;5025919;28;20071;-81
2024/01/12 03:46:21;;;;;;;108.03;35.10;;;0.00;99.90;;;;;;5021477;28;20064;-83
2024/01/12 03:48:47;;;;;;;123.30;35.67;;;0.00;99.90;;;;;;5016256;28;20051;-81
2024/01/12 03:51:12;;;;;;;88.78;29.75;;;0.00;99.90;;;;;;5017607;28;20405;-81
2024/01/12 03:53:38;;;;;;;98.90;34.38;;;0.00;99.90;;;;;;5023506;28;20742;-82
2024/01/12 03:56:04;;;;;;;101.28;31.85;;;0.00;99.90;;;;;;5031200;28;20056;-81
2024/01/12 03:58:32;;;;;;;105.30;32.05;;;0.00;99.90;;;;;;5017730;28;20577;-86
2024/01/12 04:00:59;;;;;;;98.50;30.05;;;0.00;99.90;;;;;;5028451;28;20118;-81
2024/01/12 04:03:29;;;;;;;81.82;29.23;;;0.00;99.90;;;;;;5023963;28;20026;-83
2024/01/12 04:05:54;;;;;;;92.15;29.85;;;0.00;99.90;;;;;;5017903;28;20075;-82
2024/01/12 04:08:23;;;;;;;96.28;29.80;;;0.00;99.90;;;;;;5018782;28;20021;-87
2024/01/12 04:10:49;;;;;;;101.43;33.75;;;0.00;99.90;;;;;;5021739;28;20029;-82
2024/01/12 04:13:14;;;;;;;98.65;31.75;;;0.00;99.90;;;;;;5024660;28;20013;-80
2024/01/12 04:15:40;;;;;;;90.68;31.08;;;0.00;99.90;;;;;;5017955;28;20025;-82
2024/01/12 04:18:05;;;;;;;96.05;32.90;;;0.00;99.90;;;;;;5027998;28;20131;-82
2024/01/12 04:20:31;;;;;;;93.10;31.63;;;0.00;99.90;;;;;;5023291;28;20489;-82
2024/01/12 04:22:57;;;;;;;80.85;27.27;;;0.00;99.90;;;;;;5021234;28;20060;-82
2024/01/12 04:25:22;;;;;;;79.43;26.52;;;0.00;99.90;;;;;;5026526;28;20029;-86
2024/01/12 04:27:51;;;;;;;74.30;26.15;;;0.00;99.90;;;;;;5024004;28;20030;-86
2024/01/12 04:30:16;;;;;;;76.95;25.77;;;0.00;99.90;;;;;;5025492;28;20037;-83
2024/01/12 04:32:42;;;;;;;65.35;23.65;;;0.00;99.90;;;;;;5022482;28;20345;-81
2024/01/12 04:35:09;;;;;;;74.50;25.95;;;0.10;99.90;;;;;;5022624;28;20018;-85
2024/01/12 04:37:35;;;;;;;74.68;26.05;;;0.00;99.90;;;;;;5016125;28;20186;-84
2024/01/12 04:40:00;;;;;;;65.60;24.48;;;0.10;99.90;;;;;;5024082;28;20095;-81
2024/01/12 04:42:26;;;;;;;62.83;24.25;;;0.10;99.90;;;;;;5020505;28;20048;-82
2024/01/12 04:44:51;;;;;;;58.17;22.10;;;0.10;99.90;;;;;;5023965;28;20066;-83
2024/01/12 04:47:18;;;;;;;58.05;23.63;;;0.10;99.90;;;;;;5026209;28;20029;-82
2024/01/12 04:49:44;;;;;;;55.40;21.90;;;0.10;99.90;;;;;;5024604;28;20055;-86
2024/01/12 04:52:10;;;;;;;57.38;19.20;;;0.10;99.90;;;;;;5017600;28;20423;-83
2024/01/12 04:54:35;;;;;;;53.75;19.55;;;0.20;99.90;;;;;;5022373;28;20026;-82
2024/01/12 04:57:01;;;;;;;49.55;18.65;;;0.20;99.90;;;;;;5016428;28;20017;-83
2024/01/12 04:59:26;;;;;;;54.28;19.52;;;0.20;99.90;;;;;;5019532;28;20458;-81
2024/01/12 05:01:52;;;;;;;42.53;17.17;;;0.20;99.90;;;;;;5019589;28;20033;-83
2024/01/12 05:04:18;;;;;;;47.70;18.15;;;0.20;99.90;;;;;;5020333;28;20034;-86
2024/01/12 05:06:43;;;;;;;40.78;17.95;;;0.20;99.90;;;;;;5022075;28;20049;-82
2024/01/12 05:09:10;;;;;;;63.78;19.40;;;0.20;99.90;;;;;;5019547;28;20041;-82
2024/01/12 05:11:36;;;;;;;45.17;19.50;;;0.20;99.90;;;;;;5020867;28;20048;-82
2024/01/12 05:14:02;;;;;;;39.28;17.52;;;0.20;99.90;;;;;;5022435;28;20040;-84
2024/01/12 05:16:30;;;;;;;45.38;18.55;;;0.20;99.90;;;;;;5018332;28;20025;-82
2024/01/12 05:18:55;;;;;;;40.28;16.88;;;0.20;99.90;;;;;;5023464;28;20125;-81
2024/01/12 05:21:21;;;;;;;36.05;16.27;;;0.20;99.90;;;;;;5018895;28;20124;-82
2024/01/12 05:23:46;;;;;;;46.72;18.98;;;0.30;99.90;;;;;;5015263;28;20091;-82
2024/01/12 05:26:15;;;;;;;47.85;20.92;;;0.30;99.90;;;;;;5020709;28;20463;-82
2024/01/12 05:28:40;;;;;;;34.22;15.57;;;0.20;99.90;;;;;;5021648;28;20372;-82
2024/01/12 05:31:09;;;;;;;43.88;17.40;;;0.20;99.90;;;;;;5019254;28;20045;-82
2024/01/12 05:33:35;;;;;;;41.15;17.17;;;0.20;99.90;;;;;;5020632;28;20025;-86
2024/01/12 05:36:00;;;;;;;35.72;16.38;;;0.30;99.90;;;;;;5024754;28;20461;-82
2024/01/12 05:38:26;;;;;;;36.00;15.85;;;0.30;99.90;;;;;;5018024;28;20120;-82
2024/01/12 05:40:51;;;;;;;45.58;17.02;;;0.30;99.90;;;;;;5020670;28;20037;-85
2024/01/12 05:43:17;;;;;;;28.13;14.02;;;0.30;99.90;;;;;;5020539;28;20014;-80
2024/01/12 05:45:43;;;;;;;44.60;17.00;;;0.30;99.90;;;;;;5017499;28;20021;-80
2024/01/12 05:48:40;;;;;;;35.42;15.27;;;0.20;99.90;;;;;;5024182;28;20292;-80
2024/01/12 05:51:16;;;;;;;34.90;15.02;;;0.20;99.90;;;;;;5010485;28;20343;-80
2024/01/12 05:53:41;;;;;;;38.70;16.80;;;0.20;99.90;;;;;;5013851;28;20112;-80
2024/01/12 05:56:10;;;;;;;43.63;16.65;;;0.20;99.90;;;;;;5023354;28;20545;-84
2024/01/12 05:58:36;;;;;;;36.75;15.07;;;0.20;99.90;;;;;;5024591;28;20030;-81
2024/01/12 06:01:01;;;;;;;31.58;14.55;;;0.20;99.90;;;;;;5025233;28;20013;-80
2024/01/12 06:03:29;;;;;;;36.90;16.08;;;0.20;99.90;;;;;;5026496;28;20068;-80
2024/01/12 06:05:56;;;;;;;49.60;17.98;;;0.20;99.90;;;;;;5023637;28;20045;-80
2024/01/12 06:08:21;;;;;;;34.65;15.38;;;0.20;99.90;;;;;;5022148;28;20021;-80
2024/01/12 06:10:47;;;;;;;35.90;17.60;;;0.30;99.90;;;;;;5027520;28;20064;-80
2024/01/12 06:13:13;;;;;;;42.03;16.88;;;0.30;99.90;;;;;;5016949;28;20033;-80
2024/01/12 06:15:39;;;;;;;40.75;15.90;;;0.30;99.90;;;;;;5022428;28;20373;-81
2024/01/12 06:18:05;;;;;;;45.30;16.15;;;0.20;99.90;;;;;;5025586;28;20135;-79
2024/01/12 06:20:30;;;;;;;36.15;16.48;;;0.30;99.90;;;;;;5008610;28;20036;-80
2024/01/12 06:22:56;;;;;;;34.92;14.48;;;0.20;99.90;;;;;;5022390;28;20061;-83
2024/01/12 06:25:23;;;;;;;33.17;13.98;;;0.20;99.90;;;;;;5022145;28;20079;-81
2024/01/12 06:27:49;;;;;;;31.40;14.63;;;0.20;99.90;;;;;;5019118;28;20063;-81
2024/01/12 06:30:15;;;;;;;36.58;14.90;;;0.20;99.90;;;;;;5021167;28;20072;-81
2024/01/12 06:32:40;;;;;;;31.17;13.60;;;0.20;99.90;;;;;;5022567;28;20045;-80
2024/01/12 06:35:10;;;;;;;38.42;15.90;;;0.20;99.90;;;;;;5023091;28;20033;-79
2024/01/12 06:37:36;;;;;;;38.22;16.58;;;0.20;99.90;;;;;;5019553;28;20033;-79
2024/01/12 06:40:03;;;;;;;32.50;15.40;;;0.20;99.90;;;;;;5022592;28;20022;-80
2024/01/12 06:42:29;;;;;;;29.42;14.35;;;0.20;99.90;;;;;;5023580;28;20333;-80
2024/01/12 06:44:55;;;;;;;33.17;14.85;;;0.20;99.90;;;;;;5025292;28;20104;-83
2024/01/12 06:47:20;;;;;;;41.13;17.73;;;0.20;99.90;;;;;;5031392;28;20389;-81
2024/01/12 06:49:47;;;;;;;37.30;17.65;;;0.20;99.90;;;;;;5022793;28;20108;-80
2024/01/12 06:52:13;;;;;;;37.08;16.98;;;0.20;99.90;;;;;;5020333;28;20466;-79
2024/01/12 06:54:43;;;;;;;48.78;19.25;;;0.20;99.90;;;;;;5022171;28;20083;-80
2024/01/12 06:57:08;;;;;;;51.28;21.67;;;0.20;99.90;;;;;;5025219;28;20052;-80
2024/01/12 06:59:34;;;;;;;56.33;25.77;;;0.20;99.90;;;;;;5028611;28;20461;-79
2024/01/12 07:02:00;;;;;;;78.47;35.80;;;0.20;99.90;;;;;;5029360;28;20091;-81
2024/01/12 07:04:25;;;;;;;78.47;37.15;;;0.20;99.90;;;;;;5016955;28;20026;-80
2024/01/12 07:06:52;;;;;;;87.22;39.97;;;0.20;99.90;;;;;;5024749;28;20120;-80
2024/01/12 07:09:18;;;;;;;91.90;39.13;;;0.20;99.90;;;;;;5023346;28;20416;-80
2024/01/12 07:11:44;;;;;;;82.22;37.80;;;0.20;99.90;;;;;;5026559;28;20081;-79
2024/01/12 07:14:11;;;;;;;72.57;32.72;;;0.10;99.90;;;;;;5027111;28;20029;-79
2024/01/12 07:16:37;;;;;;;51.70;26.65;;;0.20;99.90;;;;;;5023753;28;20061;-79
2024/01/12 07:19:04;;;;;;;63.20;27.35;;;0.20;99.90;;;;;;5028889;28;20030;-79
2024/01/12 07:21:29;;;;;;;50.97;24.85;;;0.20;99.90;;;;;;5022515;28;20358;-80
2024/01/12 07:23:55;;;;;;;63.65;28.83;;;0.20;99.90;;;;;;5017794;28;20021;-79
2024/01/12 07:26:21;;;;;;;53.53;20.92;;;0.20;99.90;;;;;;5021085;28;20024;-79
2024/01/12 07:28:47;;;;;;;43.42;19.13;;;0.30;99.90;;;;;;5030323;28;20035;-79
2024/01/12 07:31:12;;;;;;;40.63;18.20;;;0.20;99.90;;;;;;5026886;28;20033;-79
2024/01/12 07:33:38;;;;;;;38.67;18.00;;;0.20;99.90;;;;;;5024884;28;20044;-79
2024/01/12 07:36:04;;;;;;;30.42;14.30;;;0.20;99.90;;;;;;5024233;28;20030;-79
2024/01/12 07:38:29;;;;;;;33.25;14.75;;;0.20;99.90;;;;;;5027147;28;20463;-82
2024/01/12 07:40:55;;;;;;;37.65;16.33;;;0.20;99.90;;;;;;5010462;28;20029;-80
2024/01/12 07:43:21;;;;;;;38.22;16.15;;;0.20;99.90;;;;;;5024877;28;20026;-80
2024/01/12 07:45:47;;;;;;;35.75;15.73;;;0.20;99.90;;;;;;5026079;28;20091;-79
2024/01/12 07:48:12;;;;;;;37.92;15.02;;;0.20;99.90;;;;;;5027168;28;20540;-80
2024/01/12 07:50:38;;;;;;;33.75;14.82;;;0.30;99.90;;;;;;5027902;28;20025;-80
2024/01/12 07:53:04;;;;;;;37.53;17.08;;;0.20;99.90;;;;;;5026704;28;20033;-80
2024/01/12 07:55:33;;;;;;;46.50;19.05;;;0.20;99.90;;;;;;5026203;28;20025;-83
2024/01/12 07:57:59;;;;;;;44.75;18.77;;;0.30;99.90;;;;;;5021568;28;20414;-81
2024/01/12 08:00:25;;;;;;;39.38;16.13;;;0.30;99.90;;;;;;5021764;28;20041;-80
2024/01/12 08:02:54;;;;;;;38.88;16.02;;;0.40;99.90;;;;;;5026391;28;20028;-79
2024/01/12 08:05:23;;;;;;;46.15;19.20;;;0.30;99.90;;;;;;5031362;28;20489;-83
2024/01/12 08:07:49;;;;;;;43.70;20.60;;;0.30;99.90;;;;;;5022638;28;20252;-79
2024/01/12 08:10:15;;;;;;;66.45;27.10;;;0.30;99.90;;;;;;5027309;28;20116;-79
2024/01/12 08:12:41;;;;;;;51.55;23.90;;;0.30;99.90;;;;;;5026685;28;20037;-79
2024/01/12 08:15:10;;;;;;;47.40;23.35;;;0.30;99.90;;;;;;5023954;28;20532;-81
2024/01/12 08:17:39;;;;;;;47.83;20.65;;;0.30;99.90;;;;;;5023451;28;20401;-79
2024/01/12 08:20:06;;;;;;;38.92;19.80;;;0.30;99.90;;;;;;5023777;28;20022;-79
2024/01/12 08:22:32;;;;;;;44.55;20.27;;;0.30;99.90;;;;;;5022636;28;20789;-79
2024/01/12 08:24:58;;;;;;;46.53;19.45;;;0.30;99.90;;;;;;5026278;28;20095;-80
2024/01/12 08:27:24;;;;;;;46.70;20.92;;;0.30;99.90;;;;;;5026983;28;20025;-81
2024/01/12 08:29:49;;;;;;;46.95;20.20;;;0.30;99.90;;;;;;5026440;28;20474;-80
2024/01/12 08:32:15;;;;;;;36.88;16.30;;;0.40;99.90;;;;;;5024082;28;20515;-81
2024/01/12 08:34:40;;;;;;;47.13;17.92;;;0.50;99.90;;;;;;5019619;28;20100;-79
2024/01/12 08:37:09;;;;;;;38.05;17.63;;;0.50;99.90;;;;;;5025067;28;20017;-80
2024/01/12 08:39:35;;;;;;;35.67;15.25;;;0.50;99.90;;;;;;5017072;28;20372;-80
2024/01/12 08:42:00;;;;;;;38.58;17.08;;;0.50;99.90;;;;;;5021626;28;20017;-79
2024/01/12 08:44:26;;;;;;;35.65;15.68;;;0.50;99.90;;;;;;5038709;28;20524;-80
2024/01/12 08:46:54;;;;;;;31.80;15.52;;;0.50;99.90;;;;;;5025734;28;20105;-81
2024/01/12 08:49:20;;;;;;;38.88;15.82;;;0.50;99.90;;;;;;5025209;28;20018;-81
2024/01/12 08:51:49;;;;;;;41.15;17.60;;;0.50;99.90;;;;;;5029469;28;20490;-79
2024/01/12 08:54:15;;;;;;;33.67;16.52;;;0.60;99.90;;;;;;5027584;28;20022;-80
2024/01/12 08:56:41;;;;;;;27.90;14.40;;;0.60;99.90;;;;;;5006204;28;20032;-82
2024/01/12 08:59:08;;;;;;;34.58;14.27;;;0.60;99.90;;;;;;5017409;28;20013;-80
2024/01/12 09:01:33;;;;;;;31.38;13.93;;;0.60;99.90;;;;;;5032524;28;20022;-80
2024/01/12 09:04:01;;;;;;;33.58;16.13;;;0.70;99.90;;;;;;5019197;28;20021;-80
2024/01/12 09:06:26;;;;;;;31.65;14.45;;;0.70;99.90;;;;;;5025401;28;20259;-80
2024/01/12 09:08:52;;;;;;;25.55;12.95;;;0.60;99.90;;;;;;5018454;28;20028;-80
2024/01/12 09:11:18;;;;;;;26.85;12.95;;;0.60;99.90;;;;;;5026686;28;20037;-83
2024/01/12 09:13:44;;;;;;;25.08;12.73;;;0.50;99.90;;;;;;5023975;28;20401;-80
2024/01/12 09:16:10;;;;;;;30.85;12.45;;;0.50;99.90;;;;;;5023181;28;20025;-81
2024/01/12 09:18:36;;;;;;;23.50;12.65;;;0.50;99.90;;;;;;5019243;28;20376;-80
2024/01/12 09:21:01;;;;;;;26.25;14.20;;;0.50;99.90;;;;;;5023167;28;20036;-80
2024/01/12 09:23:27;;;;;;;37.28;15.90;;;0.50;99.90;;;;;;5016826;28;20497;-80
2024/01/12 09:25:54;;;;;;;26.20;13.95;;;0.50;99.90;;;;;;5026452;28;20346;-82
2024/01/12 09:28:21;;;;;;;29.15;14.35;;;0.50;99.90;;;;;;5026633;28;20052;-81
2024/01/12 09:30:47;;;;;;;27.58;14.20;;;0.50;99.90;;;;;;5029070;28;20428;-81
2024/01/12 09:33:13;;;;;;;33.85;15.68;;;0.50;99.90;;;;;;5017470;28;20787;-80
2024/01/12 09:35:39;;;;;;;37.22;16.20;;;0.50;99.90;;;;;;5023889;28;20030;-82
2024/01/12 09:38:05;;;;;;;32.17;15.07;;;0.50;99.90;;;;;;5027487;28;20017;-80
2024/01/12 09:40:31;;;;;;;25.55;11.23;;;0.50;99.90;;;;;;5023072;28;20434;-80
2024/01/12 09:42:59;;;;;;;23.15;11.07;;;0.60;99.90;;;;;;5021458;28;20057;-80
2024/01/12 09:45:26;;;;;;;23.90;11.57;;;0.60;99.90;;;;;;5020970;28;20036;-83
2024/01/12 09:47:52;;;;;;;28.40;12.15;;;0.60;99.90;;;;;;5023006;28;20036;-82
2024/01/12 09:50:22;;;;;;;45.55;20.15;;;0.60;99.90;;;;;;5011616;28;20029;-84
2024/01/12 09:52:49;;;;;;;31.58;13.30;;;0.60;99.90;;;;;;5014850;28;20466;-81
2024/01/12 09:55:14;;;;;;;21.83;12.32;;;0.70;99.90;;;;;;5023461;28;20017;-81
2024/01/12 09:57:40;;;;;;;19.48;11.18;;;0.60;99.90;;;;;;5023255;28;20152;-83
2024/01/12 10:00:09;;;;;;;20.33;10.75;;;0.60;99.90;;;;;;5023029;28;20021;-80
2024/01/12 10:02:35;;;;;;;19.65;10.40;;;0.70;99.90;;;;;;5024538;28;20029;-81
2024/01/12 10:05:00;;;;;;;16.98;9.20;;;0.70;99.90;;;;;;5021142;28;20170;-80
2024/01/12 10:07:26;;;;;;;24.70;10.07;;;0.70;99.90;;;;;;5020937;28;20029;-82
2024/01/12 10:09:52;;;;;;;19.33;9.05;;;0.70;99.90;;;;;;5019547;28;20030;-82
2024/01/12 10:12:19;;;;;;;18.80;10.13;;;0.70;99.90;;;;;;5021537;28;20055;-84
2024/01/12 10:14:44;;;;;;;20.45;10.82;;;0.80;99.90;;;;;;5022310;28;20034;-80
2024/01/12 10:17:11;;;;;;;17.63;8.43;;;0.80;99.90;;;;;;5033642;28;20350;-80
2024/01/12 10:19:37;;;;;;;22.15;11.20;;;0.80;99.90;;;;;;5021387;28;20053;-82
2024/01/12 10:22:03;;;;;;;25.40;12.15;;;0.80;99.90;;;;;;5021305;28;20127;-81
2024/01/12 10:24:30;;;;;;;70.28;24.10;;;0.90;99.90;;;;;;5024369;28;20056;-85
2024/01/12 10:27:01;;;;;;;47.03;19.20;;;0.90;99.90;;;;;;5021840;28;20374;-80
2024/01/12 10:29:27;;;;;;;26.83;13.75;;;1.00;99.90;;;;;;5025518;28;20037;-80
2024/01/12 10:31:52;;;;;;;33.28;16.60;;;1.00;99.90;;;;;;5020262;28;20048;-80
2024/01/12 10:34:21;;;;;;;44.92;24.63;;;0.90;99.90;;;;;;5022440;28;20025;-84
2024/01/12 10:36:52;;;;;;;32.95;16.50;;;0.90;99.90;;;;;;5017062;28;20025;-81
2024/01/12 10:39:19;;;;;;;35.13;15.50;;;0.90;99.90;;;;;;5023117;28;20021;-85
2024/01/12 10:41:46;;;;;;;36.08;16.23;;;0.90;99.90;;;;;;5014725;28;20347;-84
2024/01/12 10:44:15;;;;;;;32.10;15.80;;;1.00;99.90;;;;;;5025145;28;20017;-82
2024/01/12 10:46:47;;;;;;;31.65;15.45;;;0.90;99.90;;;;;;5034733;28;20241;-81
2024/01/12 10:49:21;;;;;;;33.13;17.27;;;0.90;99.90;;;;;;5022348;28;20120;-81
2024/01/12 10:52:07;;;;;;;33.33;16.23;;;0.80;99.90;;;;;;5016290;28;20076;-81
2024/01/12 10:54:53;;;;;;;36.13;17.67;;;0.80;99.90;;;;;;5026477;28;20025;-81
2024/01/12 10:57:19;;;;;;;28.27;14.23;;;0.90;99.90;;;;;;5022773;28;20030;-85
2024/01/12 10:59:46;;;;;;;30.35;16.73;;;0.80;99.90;;;;;;5019856;28;20029;-81
2024/01/12 11:02:13;;;;;;;27.17;15.18;;;0.80;99.90;;;;;;5019593;28;20017;-80
2024/01/12 11:04:42;;;;;;;31.48;15.90;;;0.90;99.90;;;;;;5020000;28;20481;-81
2024/01/12 11:07:10;;;;;;;35.08;17.23;;;0.90;99.90;;;;;;5023816;28;20049;-80
2024/01/12 11:09:35;;;;;;;31.58;15.52;;;1.00;99.90;;;;;;5017741;28;20648;-81
2024/01/12 11:12:18;;;;;;;30.55;15.35;;;1.00;99.90;;;;;;5014054;28;20124;-81
2024/01/12 11:14:44;;;;;;;26.83;14.10;;;1.00;99.90;;;;;;5019938;28;20025;-80
2024/01/12 11:17:12;;;;;;;32.42;15.18;;;0.90;99.90;;;;;;5022443;28;20029;-81
2024/01/12 11:19:37;;;;;;;33.80;14.93;;;0.90;99.90;;;;;;5022907;28;20068;-80
2024/01/12 11:22:05;;;;;;;32.90;14.05;;;1.00;99.90;;;;;;5019722;28;20033;-80
2024/01/12 11:24:31;;;;;;;28.08;14.15;;;0.90;99.90;;;;;;5009684;28;20018;-80
2024/01/12 11:26:57;;;;;;;32.95;16.02;;;0.90;99.90;;;;;;5014635;28;20033;-80
2024/01/12 11:29:34;;;;;;;29.80;14.90;;;0.90;99.90;;;;;;5022360;28;20021;-81
2024/01/12 11:32:04;;;;;;;25.15;13.73;;;0.80;99.90;;;;;;5019323;28;20033;-80
2024/01/12 11:34:34;;;;;;;27.90;13.82;;;0.80;99.90;;;;;;5029227;28;20033;-80
2024/01/12 11:37:01;;;;;;;33.42;15.90;;;0.80;99.90;;;;;;5022967;28;20433;-80
2024/01/12 11:39:41;;;;;;;34.70;15.82;;;0.90;99.90;;;;;;5023844;28;20017;-81
2024/01/12 11:42:08;;;;;;;31.63;15.63;;;0.90;99.90;;;;;;5032635;28;20033;-81
2024/01/12 11:44:35;;;;;;;30.55;15.73;;;1.00;99.90;;;;;;5019392;28;20038;-83
2024/01/12 11:47:05;;;;;;;33.08;16.73;;;1.00;99.90;;;;;;5026448;28;20024;-84
2024/01/12 11:49:30;;;;;;;32.45;15.45;;;1.10;99.90;;;;;;5021574;28;20083;-80
2024/01/12 11:52:05;;;;;;;29.48;15.63;;;1.10;99.90;;;;;;5026338;28;20474;-80
2024/01/12 11:54:30;;;;;;;34.13;16.38;;;1.10;99.90;;;;;;5026592;28;20047;-82
2024/01/12 11:56:56;;;;;;;32.92;16.95;;;1.20;99.90;;;;;;5027459;28;20462;-80
2024/01/12 11:59:22;;;;;;;27.13;15.43;;;1.30;99.90;;;;;;5027393;28;20115;-84
2024/01/12 12:01:48;;;;;;;32.58;15.25;;;1.30;99.90;;;;;;5021678;28;20032;-80
2024/01/12 12:04:19;;;;;;;29.80;14.48;;;1.30;99.90;;;;;;5018762;28;20052;-80
2024/01/12 12:06:46;;;;;;;29.50;15.85;;;1.40;99.90;;;;;;5022827;28;20034;-80
2024/01/12 12:09:12;;;;;;;35.15;15.70;;;1.40;99.90;;;;;;5024397;28;20017;-81
2024/01/12 12:11:38;;;;;;;34.97;16.85;;;1.40;99.90;;;;;;5026202;28;20048;-82
2024/01/12 12:14:05;;;;;;;31.80;15.32;;;1.40;99.90;;;;;;5026316;28;20014;-84
2024/01/12 12:16:30;;;;;;;29.00;14.98;;;1.40;99.90;;;;;;5022078;28;20029;-82
2024/01/12 12:18:56;;;;;;;34.03;17.38;;;1.40;99.90;;;;;;5021883;28;20026;-81
2024/01/12 12:21:22;;;;;;;32.33;17.42;;;1.40;99.90;;;;;;5025333;28;20094;-81
2024/01/12 12:23:48;;;;;;;38.97;18.33;;;1.40;99.90;;;;;;5026670;28;20086;-81
2024/01/12 12:26:14;;;;;;;42.60;18.00;;;1.40;99.90;;;;;;5026996;28;20030;-80
2024/01/12 12:28:39;;;;;;;38.65;18.20;;;1.30;99.90;;;;;;5026093;28;20033;-83
2024/01/12 12:31:10;;;;;;;37.50;18.88;;;1.30;99.90;;;;;;5029837;28;20037;-88
2024/01/12 12:33:36;;;;;;;35.55;19.35;;;1.30;99.90;;;;;;5023019;28;20123;-82